Greasewood Springs, Arizona
Current Conditions -  °F | °C
As of 5:53 PM on Sunday 21 Dec 2014 (Local Time) from KRQE Reporting Station
Clear Clear  
Wind Chill: 38°   Ceiling: Unl
Heat Index: 41°   Visibility: 10mi
Dew Point: 30°   Wind: 5mph
Humidity: 65%   Direction: 240°WSW
Pressure: 30.02"   Gusts: NA
Location:  36.4446°N, 109.262°W
Report Text: KRQE 220053Z AUTO 24004KT 10SM CLR 05/M01 A3002 RMK AO2 SLP139 T00501011 TSNO
Loading
Personal Weather Stations






























Interactive Weather Map New forecast layout! Learn more

10-Day Weather Forecast

Advertisements
Track Severe Weather on mobile